Catàleg de serveis del Meteocat
Campanya meteocatpedra

Dades de l'estació automàtica Canaletes

?
?
Resum diari 22:00 TU
Dades diàries de l'estació meteorològica
Temperatura mitjana 13.5 °C
Temperatura màxima 18.1 °C 13:24 TU
Temperatura mínima 9.9 °C 5:56 TU
Humitat relativa mitjana 70%
Precipitació acumulada 0.2 mm
Ratxa màxima del vent (2 m) 38.9 km/h - 81º 16:28 TU
Irradiació solar global 13.5 MJ/m2

El tram horari està expressat en Temps Universal (TU). Cal sumar una hora en horari d'hivern i dues en horari d'estiu per passar a l'hora oficial.

Canaletes

Metadades estació meteorol´gica
Municipi Mediona
Comarca Alt Penedès
Altitud 325 m
Data alta 17.05.2002
Estat actual Operativa
Dades de període
Període
TU
TM
°C
TX
°C
TN
°C
HRM
%
PPT
mm
VVM (2 m)
km/h
DVM (2 m)
graus
VVX (2 m)
km/h
RS
W/m2
00:00 - 00:30 11.4 11.4 11.3 97 0.0 5.4 54 10.8 0
00:30 - 01:00 11.4 11.4 11.4 94 0.0 4.0 51 9.7 0
01:00 - 01:30 11.4 11.4 11.4 92 0.0 2.9 51 10.8 0
01:30 - 02:00 11.5 11.5 11.4 91 0.0 2.9 82 7.6 0
02:00 - 02:30 11.4 11.5 11.4 92 0.0 2.5 85 6.5 0
02:30 - 03:00 11.3 11.4 11.0 93 0.0 4.3 82 9.7 0
03:00 - 03:30 10.7 11.0 10.4 95 0.0 3.2 50 7.9 0
03:30 - 04:00 10.6 10.8 10.3 97 0.0 4.3 33 13.0 0
04:00 - 04:30 10.6 10.8 10.4 95 0.0 7.2 47 16.2 0
04:30 - 05:00 10.2 10.3 10.1 96 0.0 3.6 34 10.4 0
05:00 - 05:30 10.0 10.2 9.9 96 0.0 1.4 320 3.6 9
05:30 - 06:00 9.9 10.0 9.9 94 0.0 2.5 336 4.0 35
06:00 - 06:30 10.3 10.6 10.0 89 0.0 1.8 74 5.0 85
06:30 - 07:00 10.9 11.4 10.6 85 0.0 1.8 216 5.8 181
07:00 - 07:30 11.5 11.6 11.5 80 0.0 4.3 103 10.8 200
07:30 - 08:00 11.8 12.2 11.6 79 0.0 7.2 75 15.8 189
08:00 - 08:30 12.3 12.8 12.1 74 0.0 9.7 81 21.2 238
08:30 - 09:00 12.4 12.8 11.9 74 0.2 8.3 77 16.2 126
09:00 - 09:30 12.6 12.9 12.1 75 0.0 7.9 76 14.4 225
09:30 - 10:00 13.2 13.4 13.0 70 0.0 8.6 78 16.6 217
10:00 - 10:30 13.7 14.3 13.4 63 0.0 7.9 64 14.4 286
10:30 - 11:00 14.9 15.6 14.3 57 0.0 6.8 69 15.1 463
11:00 - 11:30 15.1 15.6 15.0 53 0.0 11.2 76 22.0 304
11:30 - 12:00 16.1 16.9 15.5 53 0.0 9.4 102 22.0 553
12:00 - 12:30 16.8 17.1 16.3 50 0.0 14.8 91 31.7 592
12:30 - 13:00 17.1 17.9 16.2 49 0.0 17.3 89 36.0 741
13:00 - 13:30 17.8 18.1 17.4 49 0.0 19.1 96 37.8 759
13:30 - 14:00 17.6 18.0 17.1 52 0.0 15.8 113 32.4 605
14:00 - 14:30 17.3 17.5 17.0 54 0.0 13.0 92 27.4 366
14:30 - 15:00 16.8 17.0 16.6 55 0.0 16.2 81 33.1 276
15:00 - 15:30 16.5 16.7 16.4 56 0.0 16.2 78 37.4 261
15:30 - 16:00 15.9 16.6 15.7 63 0.0 13.3 90 28.4 220
16:00 - 16:30 15.9 16.1 15.7 62 0.0 12.2 82 38.9 216
16:30 - 17:00 16.0 16.0 15.9 58 0.0 15.5 87 32.0 154
17:00 - 17:30 15.7 15.9 15.4 55 0.0 15.1 86 35.6 102
17:30 - 18:00 15.2 15.4 14.9 55 0.0 13.0 90 31.0 39
18:00 - 18:30 14.7 14.9 14.4 59 0.0 13.0 77 28.1 13
18:30 - 19:00 14.1 14.4 13.9 64 0.0 10.4 75 22.7 5
19:00 - 19:30 13.7 13.9 13.6 64 0.0 10.1 70 26.6 4
19:30 - 20:00 13.6 13.7 13.5 62 0.0 7.2 85 23.4 4
20:00 - 20:30 13.8 13.9 13.5 57 0.0 7.9 86 17.6 4
20:30 - 21:00 13.8 13.9 13.7 55 0.0 8.6 82 16.9 4
21:00 - 21:30 13.7 13.8 13.6 55 0.0 9.7 72 20.9 4
21:30 - 22:00 13.6 13.8 13.6 55 0.0 11.5 81 24.8 4
22:00 - 22:30 13.7 13.9 13.6 57 0.0 13.3 86 33.1 4
22:30 - 23:00 (s/d) (s/d) (s/d) (s/d) (s/d) (s/d) (s/d) (s/d) (s/d)

Les dades en taronja només han passat un control de qualitat automàtic. Resta pendent la seva validació definitiva.